Taos Ski Valley, NM

6:17 PM MDT on May 22, 2015 (GMT -0600)
Canon | | Change Station
CLOSE
Current Station
Personal Weather Station
Location: Taos, NM
Elevation: 7001 ft
Nearby Weather Stations

Elev 7001 ft 36.39 °N, 105.56 °W | Updated 30 minutes ago

Clear
Clear
67.6 °F
Feels Like 67.6 °F
N
4.2
Wind Variable Wind from SW

Today
High -- | Low -- °F
--% Chance of Precip.
Yesterday
High -- | Low -- °F
Precip. -- in
5:50 AM 8:07 PM
Waxing Crescent, 25% visible
Pressure 30.04 in
Visibility 10.0 miles
Clouds Clear
Dew Point 44 °F
Humidity 42%
Rainfall 0.30 in
Snow Depth Not available.
UV 2 out of 12
Pollen 7.30 out of 12
Air Quality Not available.
Flu Activity Local Activity
METAR KSKX 222355Z AUTO 24011KT 10SM CLR 17/03 A3004 RMK AO1 10170 20100 401700020 57017

More Conditions Fewer Conditions

Pressure 30.04 in
Visibility 10.0 miles
Clouds Clear
Dew Point 44 °F
Humidity 42%
Rainfall 0.30 in
Snow Depth Not available.
UV 2 out of 12
Pollen 7.30 out of 12
Air Quality Not available.
Flu Activity Local Activity
METAR KSKX 222355Z AUTO 24011KT 10SM CLR 17/03 A3004 RMK AO1 10170 20100 401700020 57017

More Conditions Fewer Conditions

Nowcast | as of 5:13 PM MDT on May 22, 2015

Isolated showers and thunderstorms will alternately develop and dissipate rather quickly across northwest and far north central New Mexico through sunset. Movement will be to the north and northeast around 30 mph and most will remain near and especially west of a line from Chama to Jemez Pueblo...though a stray shower or storm could still develop across or near the Sangre de Cristo Mountains as well. Expect wind gusts ranging from 30 to as much as 50 mph... occasional cloud to ground lightning...very brief moderate to heavy rain and very small hail with the strongest storms. Rain amounts should be fifteen hundredths of an inch or less.

×

10-Day Weather Forecast

Almanac

Astronomy

May. 22, 2015 Rise Set
Actual Time
Civil Twilight
Nautical Twilight
Astronomical Twilight
Moon
Length of Visible Light
Length of Day
Tomorrow will be .
, % of the Moon is Illuminated

Today's Extremes

State Highs State Lows

Community

WunderPhotos

Upload Photos

1,823,338 photos uploaded!

WunderBlogs® & News

Nearby

Air Quality

  Air Quality AQ Index Pollutant
Not available.

Snow Depth

Station Depth Elevation

Earthquake Activity

City Distance Mag. Time & Date
Minimum magnitude displayed is 2.5.

Coastal Water Temperatures

Place Temperature

Stations

Nearby Weather Stations

Station Location Temp. Windchill Dew Point Humidity Wind Precip. Elev Updated Type